sensor_id;sensor_type;location;lat;lon;timestamp;temperature;humidity
9949;DHT22;5013;51.840;8.276;2023-07-13T00:02:09;18.70;1.00
9949;DHT22;5013;51.840;8.276;2023-07-13T00:04:34;18.70;1.00
9949;DHT22;5013;51.840;8.276;2023-07-13T00:07:00;18.70;1.00
9949;DHT22;5013;51.840;8.276;2023-07-13T00:09:26;18.70;1.00
9949;DHT22;5013;51.840;8.276;2023-07-13T00:11:56;18.70;1.00
9949;DHT22;5013;51.840;8.276;2023-07-13T00:14:23;18.60;1.00
9949;DHT22;5013;51.840;8.276;2023-07-13T00:16:49;18.60;1.00
9949;DHT22;5013;51.840;8.276;2023-07-13T00:19:15;18.50;1.00
9949;DHT22;5013;51.840;8.276;2023-07-13T00:21:41;18.60;1.00
9949;DHT22;5013;51.840;8.276;2023-07-13T00:24:08;18.50;1.00
9949;DHT22;5013;51.840;8.276;2023-07-13T00:26:38;18.60;1.00
9949;DHT22;5013;51.840;8.276;2023-07-13T00:29:04;18.60;1.00
9949;DHT22;5013;51.840;8.276;2023-07-13T00:31:31;18.60;1.00
9949;DHT22;5013;51.840;8.276;2023-07-13T00:33:57;18.50;1.00
9949;DHT22;5013;51.840;8.276;2023-07-13T00:36:22;18.60;1.00
9949;DHT22;5013;51.840;8.276;2023-07-13T00:38:48;18.60;1.00
9949;DHT22;5013;51.840;8.276;2023-07-13T00:41:13;18.60;1.00
9949;DHT22;5013;51.840;8.276;2023-07-13T00:43:40;18.70;1.00
9949;DHT22;5013;51.840;8.276;2023-07-13T00:46:13;18.80;1.00
9949;DHT22;5013;51.840;8.276;2023-07-13T00:48:39;18.90;99.90
9949;DHT22;5013;51.840;8.276;2023-07-13T00:51:04;18.90;99.90
9949;DHT22;5013;51.840;8.276;2023-07-13T00:53:31;18.90;99.90
9949;DHT22;5013;51.840;8.276;2023-07-13T00:55:58;19.00;99.90
9949;DHT22;5013;51.840;8.276;2023-07-13T00:58:25;19.00;99.90
9949;DHT22;5013;51.840;8.276;2023-07-13T01:00:51;19.10;99.90
9949;DHT22;5013;51.840;8.276;2023-07-13T01:03:18;19.10;99.90
9949;DHT22;5013;51.840;8.276;2023-07-13T01:05:43;19.20;99.90
9949;DHT22;5013;51.840;8.276;2023-07-13T01:08:12;19.20;99.90
9949;DHT22;5013;51.840;8.276;2023-07-13T01:10:37;19.20;99.90
9949;DHT22;5013;51.840;8.276;2023-07-13T01:13:07;19.20;99.90
9949;DHT22;5013;51.840;8.276;2023-07-13T01:15:41;19.20;99.90
9949;DHT22;5013;51.840;8.276;2023-07-13T01:18:41;19.20;99.90
9949;DHT22;5013;51.840;8.276;2023-07-13T01:21:02;19.20;99.90
9949;DHT22;5013;51.840;8.276;2023-07-13T01:23:29;19.20;99.90
9949;DHT22;5013;51.840;8.276;2023-07-13T01:25:55;19.20;99.90
9949;DHT22;5013;51.840;8.276;2023-07-13T01:28:22;19.10;99.90
9949;DHT22;5013;51.840;8.276;2023-07-13T01:30:48;19.10;99.90
9949;DHT22;5013;51.840;8.276;2023-07-13T01:33:16;19.00;99.90
9949;DHT22;5013;51.840;8.276;2023-07-13T01:35:42;19.00;99.90
9949;DHT22;5013;51.840;8.276;2023-07-13T01:38:09;19.00;99.90
9949;DHT22;5013;51.840;8.276;2023-07-13T01:40:36;19.00;1.00
9949;DHT22;5013;51.840;8.276;2023-07-13T01:43:02;19.00;1.00
9949;DHT22;5013;51.840;8.276;2023-07-13T01:45:28;19.00;1.00
9949;DHT22;5013;51.840;8.276;2023-07-13T01:47:53;19.00;1.00
9949;DHT22;5013;51.840;8.276;2023-07-13T01:50:19;18.90;1.00
9949;DHT22;5013;51.840;8.276;2023-07-13T01:52:45;18.90;1.00
9949;DHT22;5013;51.840;8.276;2023-07-13T01:55:10;18.90;1.00
9949;DHT22;5013;51.840;8.276;2023-07-13T01:57:36;18.80;1.00
9949;DHT22;5013;51.840;8.276;2023-07-13T02:00:06;18.70;99.90
9949;DHT22;5013;51.840;8.276;2023-07-13T02:02:32;18.60;99.90
9949;DHT22;5013;51.840;8.276;2023-07-13T02:04:58;18.40;99.90
9949;DHT22;5013;51.840;8.276;2023-07-13T02:07:24;18.40;1.00
9949;DHT22;5013;51.840;8.276;2023-07-13T02:09:49;18.30;1.00
9949;DHT22;5013;51.840;8.276;2023-07-13T02:12:15;18.20;1.00
9949;DHT22;5013;51.840;8.276;2023-07-13T02:14:40;18.10;1.00
9949;DHT22;5013;51.840;8.276;2023-07-13T02:17:06;18.10;1.00
9949;DHT22;5013;51.840;8.276;2023-07-13T02:19:32;18.00;99.90
9949;DHT22;5013;51.840;8.276;2023-07-13T02:21:58;18.10;48.90
9949;DHT22;5013;51.840;8.276;2023-07-13T02:24:23;17.90;99.90
9949;DHT22;5013;51.840;8.276;2023-07-13T02:26:49;17.80;99.90
9949;DHT22;5013;51.840;8.276;2023-07-13T02:29:15;17.70;1.00
9949;DHT22;5013;51.840;8.276;2023-07-13T02:31:40;17.70;1.00
9949;DHT22;5013;51.840;8.276;2023-07-13T02:34:06;17.70;1.00
9949;DHT22;5013;51.840;8.276;2023-07-13T02:36:32;17.60;1.00
9949;DHT22;5013;51.840;8.276;2023-07-13T02:39:03;17.50;1.00
9949;DHT22;5013;51.840;8.276;2023-07-13T02:41:29;17.50;1.00
9949;DHT22;5013;51.840;8.276;2023-07-13T02:43:55;17.40;1.00
9949;DHT22;5013;51.840;8.276;2023-07-13T02:46:28;17.40;1.00
9949;DHT22;5013;51.840;8.276;2023-07-13T02:48:54;17.40;1.00
9949;DHT22;5013;51.840;8.276;2023-07-13T02:51:19;17.30;1.00
9949;DHT22;5013;51.840;8.276;2023-07-13T02:53:45;17.40;1.00
9949;DHT22;5013;51.840;8.276;2023-07-13T02:56:11;17.50;1.00
9949;DHT22;5013;51.840;8.276;2023-07-13T02:58:36;17.30;1.00
9949;DHT22;5013;51.840;8.276;2023-07-13T03:01:07;17.30;1.00
9949;DHT22;5013;51.840;8.276;2023-07-13T03:03:33;17.20;1.00
9949;DHT22;5013;51.840;8.276;2023-07-13T03:06:00;17.20;99.90
9949;DHT22;5013;51.840;8.276;2023-07-13T03:08:27;17.10;1.00
9949;DHT22;5013;51.840;8.276;2023-07-13T03:11:01;17.00;1.00
9949;DHT22;5013;51.840;8.276;2023-07-13T03:13:27;16.90;1.00
9949;DHT22;5013;51.840;8.276;2023-07-13T03:15:52;16.80;1.00
9949;DHT22;5013;51.840;8.276;2023-07-13T03:18:18;16.80;1.00
9949;DHT22;5013;51.840;8.276;2023-07-13T03:20:44;16.80;1.00
9949;DHT22;5013;51.840;8.276;2023-07-13T03:23:09;16.90;99.90
9949;DHT22;5013;51.840;8.276;2023-07-13T03:25:35;16.90;92.70
9949;DHT22;5013;51.840;8.276;2023-07-13T03:28:00;16.90;26.00
9949;DHT22;5013;51.840;8.276;2023-07-13T03:30:26;16.90;1.00
9949;DHT22;5013;51.840;8.276;2023-07-13T03:32:51;17.00;1.00
9949;DHT22;5013;51.840;8.276;2023-07-13T03:35:17;17.00;1.00
9949;DHT22;5013;51.840;8.276;2023-07-13T03:37:42;17.00;1.00
9949;DHT22;5013;51.840;8.276;2023-07-13T03:40:09;17.00;99.90
9949;DHT22;5013;51.840;8.276;2023-07-13T03:42:35;17.00;99.90
9949;DHT22;5013;51.840;8.276;2023-07-13T03:45:01;17.10;99.90
9949;DHT22;5013;51.840;8.276;2023-07-13T03:47:26;17.00;99.90
9949;DHT22;5013;51.840;8.276;2023-07-13T03:49:52;17.10;1.00
9949;DHT22;5013;51.840;8.276;2023-07-13T03:52:18;17.10;1.00
9949;DHT22;5013;51.840;8.276;2023-07-13T03:54:44;17.10;1.00
9949;DHT22;5013;51.840;8.276;2023-07-13T03:57:10;17.10;1.00
9949;DHT22;5013;51.840;8.276;2023-07-13T03:59:35;17.10;1.00
9949;DHT22;5013;51.840;8.276;2023-07-13T04:02:01;17.20;1.00
9949;DHT22;5013;51.840;8.276;2023-07-13T04:04:27;17.20;1.00
9949;DHT22;5013;51.840;8.276;2023-07-13T04:06:52;17.10;1.00
9949;DHT22;5013;51.840;8.276;2023-07-13T04:09:19;17.20;1.00
9949;DHT22;5013;51.840;8.276;2023-07-13T04:11:44;17.20;1.00
9949;DHT22;5013;51.840;8.276;2023-07-13T04:14:10;17.40;99.90
9949;DHT22;5013;51.840;8.276;2023-07-13T04:16:35;17.30;1.00
9949;DHT22;5013;51.840;8.276;2023-07-13T04:19:01;17.30;1.00
9949;DHT22;5013;51.840;8.276;2023-07-13T04:21:29;17.20;1.00
9949;DHT22;5013;51.840;8.276;2023-07-13T04:23:55;17.40;1.00
9949;DHT22;5013;51.840;8.276;2023-07-13T04:26:21;17.30;99.90
9949;DHT22;5013;51.840;8.276;2023-07-13T04:28:47;17.30;99.90
9949;DHT22;5013;51.840;8.276;2023-07-13T04:31:13;17.30;99.90
9949;DHT22;5013;51.840;8.276;2023-07-13T04:33:39;17.30;99.90
9949;DHT22;5013;51.840;8.276;2023-07-13T04:36:05;17.30;99.90
9949;DHT22;5013;51.840;8.276;2023-07-13T04:38:32;17.30;99.90
9949;DHT22;5013;51.840;8.276;2023-07-13T04:41:04;17.30;99.90
9949;DHT22;5013;51.840;8.276;2023-07-13T04:43:31;17.50;99.90
9949;DHT22;5013;51.840;8.276;2023-07-13T04:46:02;17.60;99.90
9949;DHT22;5013;51.840;8.276;2023-07-13T04:48:28;17.60;99.90
9949;DHT22;5013;51.840;8.276;2023-07-13T04:50:55;17.70;99.90
9949;DHT22;5013;51.840;8.276;2023-07-13T04:53:22;18.00;10.00
9949;DHT22;5013;51.840;8.276;2023-07-13T04:55:48;19.40;1.00
9949;DHT22;5013;51.840;8.276;2023-07-13T04:58:14;20.80;1.00
9949;DHT22;5013;51.840;8.276;2023-07-13T05:00:39;22.10;1.00
9949;DHT22;5013;51.840;8.276;2023-07-13T05:03:05;22.60;1.00
9949;DHT22;5013;51.840;8.276;2023-07-13T05:05:31;23.20;1.00
9949;DHT22;5013;51.840;8.276;2023-07-13T05:07:57;23.50;1.00
9949;DHT22;5013;51.840;8.276;2023-07-13T05:10:22;23.40;1.00
9949;DHT22;5013;51.840;8.276;2023-07-13T05:12:50;23.60;1.00
9949;DHT22;5013;51.840;8.276;2023-07-13T05:15:16;23.50;1.00
9949;DHT22;5013;51.840;8.276;2023-07-13T05:17:46;23.00;1.00
9949;DHT22;5013;51.840;8.276;2023-07-13T05:20:12;23.00;1.00
9949;DHT22;5013;51.840;8.276;2023-07-13T05:22:37;22.20;1.00
9949;DHT22;5013;51.840;8.276;2023-07-13T05:25:07;22.20;1.00
9949;DHT22;5013;51.840;8.276;2023-07-13T05:27:33;21.90;1.00
9949;DHT22;5013;51.840;8.276;2023-07-13T05:29:59;21.80;1.00
9949;DHT22;5013;51.840;8.276;2023-07-13T05:32:24;21.50;1.00
9949;DHT22;5013;51.840;8.276;2023-07-13T05:34:50;21.40;1.00
9949;DHT22;5013;51.840;8.276;2023-07-13T05:37:15;21.60;1.00
9949;DHT22;5013;51.840;8.276;2023-07-13T05:39:41;21.70;1.00
9949;DHT22;5013;51.840;8.276;2023-07-13T05:42:07;21.50;1.00
9949;DHT22;5013;51.840;8.276;2023-07-13T05:44:32;21.20;1.00
9949;DHT22;5013;51.840;8.276;2023-07-13T05:46:58;21.20;1.00
9949;DHT22;5013;51.840;8.276;2023-07-13T05:49:24;21.40;1.00
9949;DHT22;5013;51.840;8.276;2023-07-13T05:51:49;21.20;1.00
9949;DHT22;5013;51.840;8.276;2023-07-13T05:54:15;21.50;1.00
9949;DHT22;5013;51.840;8.276;2023-07-13T05:56:40;21.30;1.00
9949;DHT22;5013;51.840;8.276;2023-07-13T05:59:06;21.40;1.00
9949;DHT22;5013;51.840;8.276;2023-07-13T06:01:32;21.30;1.00
9949;DHT22;5013;51.840;8.276;2023-07-13T06:03:58;21.20;1.00
9949;DHT22;5013;51.840;8.276;2023-07-13T06:06:23;20.90;1.00
9949;DHT22;5013;51.840;8.276;2023-07-13T06:08:49;20.70;1.00
9949;DHT22;5013;51.840;8.276;2023-07-13T06:11:20;20.50;1.00
9949;DHT22;5013;51.840;8.276;2023-07-13T06:13:46;20.60;1.00
9949;DHT22;5013;51.840;8.276;2023-07-13T06:16:12;20.80;1.00
9949;DHT22;5013;51.840;8.276;2023-07-13T06:18:39;20.70;1.00
9949;DHT22;5013;51.840;8.276;2023-07-13T06:21:16;20.70;1.00
9949;DHT22;5013;51.840;8.276;2023-07-13T06:23:42;21.00;1.00
9949;DHT22;5013;51.840;8.276;2023-07-13T06:26:08;21.20;1.00
9949;DHT22;5013;51.840;8.276;2023-07-13T06:28:35;21.10;1.00
9949;DHT22;5013;51.840;8.276;2023-07-13T06:31:01;21.10;1.00
9949;DHT22;5013;51.840;8.276;2023-07-13T06:33:27;21.40;1.00
9949;DHT22;5013;51.840;8.276;2023-07-13T06:35:53;21.60;1.00
9949;DHT22;5013;51.840;8.276;2023-07-13T06:38:20;21.20;1.00
9949;DHT22;5013;51.840;8.276;2023-07-13T06:40:46;21.30;1.00
9949;DHT22;5013;51.840;8.276;2023-07-13T06:43:12;21.20;1.00
9949;DHT22;5013;51.840;8.276;2023-07-13T06:45:43;20.90;1.00
9949;DHT22;5013;51.840;8.276;2023-07-13T06:48:11;21.00;1.00
9949;DHT22;5013;51.840;8.276;2023-07-13T06:50:37;20.50;1.00
9949;DHT22;5013;51.840;8.276;2023-07-13T06:53:02;20.80;1.00
9949;DHT22;5013;51.840;8.276;2023-07-13T06:55:28;21.20;1.00
9949;DHT22;5013;51.840;8.276;2023-07-13T06:57:54;21.10;1.00
9949;DHT22;5013;51.840;8.276;2023-07-13T07:00:19;21.10;1.00
9949;DHT22;5013;51.840;8.276;2023-07-13T07:02:45;21.40;1.00
9949;DHT22;5013;51.840;8.276;2023-07-13T07:05:10;21.40;1.00
9949;DHT22;5013;51.840;8.276;2023-07-13T07:07:36;21.80;1.00
9949;DHT22;5013;51.840;8.276;2023-07-13T07:10:02;22.00;1.00
9949;DHT22;5013;51.840;8.276;2023-07-13T07:12:29;21.70;1.00
9949;DHT22;5013;51.840;8.276;2023-07-13T07:14:54;21.90;1.00
9949;DHT22;5013;51.840;8.276;2023-07-13T07:17:20;22.00;1.00
9949;DHT22;5013;51.840;8.276;2023-07-13T07:19:45;21.90;1.00
9949;DHT22;5013;51.840;8.276;2023-07-13T07:22:11;21.90;1.00
9949;DHT22;5013;51.840;8.276;2023-07-13T07:24:37;22.10;1.00
9949;DHT22;5013;51.840;8.276;2023-07-13T07:27:02;22.20;1.00
9949;DHT22;5013;51.840;8.276;2023-07-13T07:29:28;22.30;1.00
9949;DHT22;5013;51.840;8.276;2023-07-13T07:31:54;22.10;1.00
9949;DHT22;5013;51.840;8.276;2023-07-13T07:34:19;22.20;1.00
9949;DHT22;5013;51.840;8.276;2023-07-13T07:36:45;22.00;1.00
9949;DHT22;5013;51.840;8.276;2023-07-13T07:39:11;21.90;1.00
9949;DHT22;5013;51.840;8.276;2023-07-13T07:41:37;21.90;1.00
9949;DHT22;5013;51.840;8.276;2023-07-13T07:44:03;22.10;1.00
9949;DHT22;5013;51.840;8.276;2023-07-13T07:46:28;21.90;1.00
9949;DHT22;5013;51.840;8.276;2023-07-13T07:48:55;21.60;1.00
9949;DHT22;5013;51.840;8.276;2023-07-13T07:51:21;21.30;1.00
9949;DHT22;5013;51.840;8.276;2023-07-13T07:53:47;21.30;1.00
9949;DHT22;5013;51.840;8.276;2023-07-13T07:56:13;21.50;1.00
9949;DHT22;5013;51.840;8.276;2023-07-13T07:58:41;21.50;1.00
9949;DHT22;5013;51.840;8.276;2023-07-13T08:01:07;21.80;1.00
9949;DHT22;5013;51.840;8.276;2023-07-13T08:03:34;21.90;1.00
9949;DHT22;5013;51.840;8.276;2023-07-13T08:06:01;21.80;1.00
9949;DHT22;5013;51.840;8.276;2023-07-13T08:08:27;21.90;1.00
9949;DHT22;5013;51.840;8.276;2023-07-13T08:10:53;22.40;1.00
9949;DHT22;5013;51.840;8.276;2023-07-13T08:13:19;22.40;1.00
9949;DHT22;5013;51.840;8.276;2023-07-13T08:15:45;22.10;1.00
9949;DHT22;5013;51.840;8.276;2023-07-13T08:18:11;22.30;1.00
9949;DHT22;5013;51.840;8.276;2023-07-13T08:20:38;22.50;1.00
9949;DHT22;5013;51.840;8.276;2023-07-13T08:23:04;22.70;1.00
9949;DHT22;5013;51.840;8.276;2023-07-13T08:25:30;23.00;1.00
9949;DHT22;5013;51.840;8.276;2023-07-13T08:27:55;22.80;1.00
9949;DHT22;5013;51.840;8.276;2023-07-13T08:30:21;22.90;1.00
9949;DHT22;5013;51.840;8.276;2023-07-13T08:32:46;22.60;1.00
9949;DHT22;5013;51.840;8.276;2023-07-13T08:35:12;22.10;1.00
9949;DHT22;5013;51.840;8.276;2023-07-13T08:37:39;22.30;1.00
9949;DHT22;5013;51.840;8.276;2023-07-13T08:40:05;22.60;1.00
9949;DHT22;5013;51.840;8.276;2023-07-13T08:42:39;22.70;1.00
9949;DHT22;5013;51.840;8.276;2023-07-13T08:47:54;23.30;1.00
9949;DHT22;5013;51.840;8.276;2023-07-13T08:50:25;22.90;1.00
9949;DHT22;5013;51.840;8.276;2023-07-13T08:52:53;23.10;1.00
9949;DHT22;5013;51.840;8.276;2023-07-13T08:55:31;23.40;1.00
9949;DHT22;5013;51.840;8.276;2023-07-13T08:58:09;23.30;1.00
9949;DHT22;5013;51.840;8.276;2023-07-13T09:03:16;22.70;1.00
9949;DHT22;5013;51.840;8.276;2023-07-13T09:05:49;22.80;1.00
9949;DHT22;5013;51.840;8.276;2023-07-13T09:11:35;23.70;1.00
9949;DHT22;5013;51.840;8.276;2023-07-13T09:17:12;23.90;1.00
9949;DHT22;5013;51.840;8.276;2023-07-13T09:19:40;23.90;1.00
9949;DHT22;5013;51.840;8.276;2023-07-13T09:22:12;23.40;1.00
9949;DHT22;5013;51.840;8.276;2023-07-13T09:24:57;23.90;1.00
9949;DHT22;5013;51.840;8.276;2023-07-13T09:27:30;24.40;1.00
9949;DHT22;5013;51.840;8.276;2023-07-13T09:32:48;24.10;1.00
9949;DHT22;5013;51.840;8.276;2023-07-13T09:35:21;23.40;1.00
9949;DHT22;5013;51.840;8.276;2023-07-13T09:37:47;23.60;1.00
9949;DHT22;5013;51.840;8.276;2023-07-13T09:40:28;23.80;1.00
9949;DHT22;5013;51.840;8.276;2023-07-13T09:42:57;24.00;1.00
9949;DHT22;5013;51.840;8.276;2023-07-13T09:45:28;23.60;1.00
9949;DHT22;5013;51.840;8.276;2023-07-13T09:48:02;23.80;1.00
9949;DHT22;5013;51.840;8.276;2023-07-13T09:50:28;24.00;1.00
9949;DHT22;5013;51.840;8.276;2023-07-13T09:52:54;24.40;1.00
9949;DHT22;5013;51.840;8.276;2023-07-13T09:55:33;24.70;1.00
9949;DHT22;5013;51.840;8.276;2023-07-13T09:58:17;24.60;1.00
9949;DHT22;5013;51.840;8.276;2023-07-13T10:00:53;24.70;1.00
9949;DHT22;5013;51.840;8.276;2023-07-13T10:03:28;24.70;1.00
9949;DHT22;5013;51.840;8.276;2023-07-13T10:06:09;24.60;1.00
9949;DHT22;5013;51.840;8.276;2023-07-13T10:08:36;24.70;1.00
9949;DHT22;5013;51.840;8.276;2023-07-13T10:11:27;24.60;1.00
9949;DHT22;5013;51.840;8.276;2023-07-13T10:13:55;24.80;99.90
9949;DHT22;5013;51.840;8.276;2023-07-13T10:16:24;24.50;1.00
9949;DHT22;5013;51.840;8.276;2023-07-13T10:18:55;25.00;1.00
9949;DHT22;5013;51.840;8.276;2023-07-13T10:21:23;25.40;99.90
9949;DHT22;5013;51.840;8.276;2023-07-13T10:24:15;26.10;99.90
9949;DHT22;5013;51.840;8.276;2023-07-13T10:26:52;26.30;99.90
9949;DHT22;5013;51.840;8.276;2023-07-13T10:29:18;25.80;99.90
9949;DHT22;5013;51.840;8.276;2023-07-13T10:31:46;25.50;99.90
9949;DHT22;5013;51.840;8.276;2023-07-13T10:34:13;25.50;99.90
9949;DHT22;5013;51.840;8.276;2023-07-13T10:36:43;25.10;99.90
9949;DHT22;5013;51.840;8.276;2023-07-13T10:39:18;25.00;99.90
9949;DHT22;5013;51.840;8.276;2023-07-13T10:41:49;25.20;99.90
9949;DHT22;5013;51.840;8.276;2023-07-13T10:44:27;25.70;99.90
9949;DHT22;5013;51.840;8.276;2023-07-13T10:46:57;26.00;99.90
9949;DHT22;5013;51.840;8.276;2023-07-13T10:49:24;26.70;99.90
9949;DHT22;5013;51.840;8.276;2023-07-13T10:51:51;27.10;99.90
9949;DHT22;5013;51.840;8.276;2023-07-13T10:59:36;26.50;99.90
9949;DHT22;5013;51.840;8.276;2023-07-13T11:04:29;25.70;99.90
9949;DHT22;5013;51.840;8.276;2023-07-13T11:06:59;25.60;99.90
9949;DHT22;5013;51.840;8.276;2023-07-13T11:09:39;25.90;99.90
9949;DHT22;5013;51.840;8.276;2023-07-13T11:17:35;25.20;99.90
9949;DHT22;5013;51.840;8.276;2023-07-13T11:22:43;25.40;99.90
9949;DHT22;5013;51.840;8.276;2023-07-13T11:25:28;25.20;99.90
9949;DHT22;5013;51.840;8.276;2023-07-13T11:30:39;24.90;99.90
9949;DHT22;5013;51.840;8.276;2023-07-13T11:33:13;24.90;99.90
9949;DHT22;5013;51.840;8.276;2023-07-13T11:36:03;25.10;99.90
9949;DHT22;5013;51.840;8.276;2023-07-13T11:38:40;25.20;99.90
9949;DHT22;5013;51.840;8.276;2023-07-13T11:41:15;25.10;99.90
9949;DHT22;5013;51.840;8.276;2023-07-13T11:43:41;24.90;99.90
9949;DHT22;5013;51.840;8.276;2023-07-13T11:46:19;24.90;99.90
9949;DHT22;5013;51.840;8.276;2023-07-13T11:48:46;25.30;99.90
9949;DHT22;5013;51.840;8.276;2023-07-13T11:51:21;25.70;99.90
9949;DHT22;5013;51.840;8.276;2023-07-13T11:53:50;25.80;99.90
9949;DHT22;5013;51.840;8.276;2023-07-13T11:56:16;25.60;99.90
9949;DHT22;5013;51.840;8.276;2023-07-13T11:58:42;25.10;99.90
9949;DHT22;5013;51.840;8.276;2023-07-13T12:01:22;25.10;99.90
9949;DHT22;5013;51.840;8.276;2023-07-13T12:03:49;25.30;99.90
9949;DHT22;5013;51.840;8.276;2023-07-13T12:06:41;25.50;99.90
9949;DHT22;5013;51.840;8.276;2023-07-13T12:09:13;25.40;99.90
9949;DHT22;5013;51.840;8.276;2023-07-13T12:11:41;25.20;99.90
9949;DHT22;5013;51.840;8.276;2023-07-13T12:14:14;25.00;99.90
9949;DHT22;5013;51.840;8.276;2023-07-13T12:16:40;24.80;99.90
9949;DHT22;5013;51.840;8.276;2023-07-13T12:19:17;24.50;99.90
9949;DHT22;5013;51.840;8.276;2023-07-13T12:21:43;24.50;99.90
9949;DHT22;5013;51.840;8.276;2023-07-13T12:24:20;24.40;99.90
9949;DHT22;5013;51.840;8.276;2023-07-13T12:27:03;24.30;99.90
9949;DHT22;5013;51.840;8.276;2023-07-13T12:29:32;24.30;99.90
9949;DHT22;5013;51.840;8.276;2023-07-13T12:31:58;23.90;99.90
9949;DHT22;5013;51.840;8.276;2023-07-13T12:34:26;24.10;99.90
9949;DHT22;5013;51.840;8.276;2023-07-13T12:39:47;25.10;99.90
9949;DHT22;5013;51.840;8.276;2023-07-13T12:44:54;25.40;99.90
9949;DHT22;5013;51.840;8.276;2023-07-13T12:47:21;25.70;99.90
9949;DHT22;5013;51.840;8.276;2023-07-13T12:49:55;26.00;99.90
9949;DHT22;5013;51.840;8.276;2023-07-13T12:52:23;26.00;99.90
9949;DHT22;5013;51.840;8.276;2023-07-13T12:54:56;25.90;99.90
9949;DHT22;5013;51.840;8.276;2023-07-13T12:57:25;25.70;99.90
9949;DHT22;5013;51.840;8.276;2023-07-13T12:59:53;25.90;99.90
9949;DHT22;5013;51.840;8.276;2023-07-13T13:02:31;26.10;99.90
9949;DHT22;5013;51.840;8.276;2023-07-13T13:04:58;26.60;99.90
9949;DHT22;5013;51.840;8.276;2023-07-13T13:07:25;26.50;99.90
9949;DHT22;5013;51.840;8.276;2023-07-13T13:09:51;26.50;99.90
9949;DHT22;5013;51.840;8.276;2023-07-13T13:12:19;26.30;99.90
9949;DHT22;5013;51.840;8.276;2023-07-13T13:14:45;26.10;99.90
9949;DHT22;5013;51.840;8.276;2023-07-13T13:17:29;26.00;99.90
9949;DHT22;5013;51.840;8.276;2023-07-13T13:19:55;26.40;99.90
9949;DHT22;5013;51.840;8.276;2023-07-13T13:22:22;26.60;99.90
9949;DHT22;5013;51.840;8.276;2023-07-13T13:24:48;26.80;99.90
9949;DHT22;5013;51.840;8.276;2023-07-13T13:27:18;26.90;99.90
9949;DHT22;5013;51.840;8.276;2023-07-13T13:29:45;26.60;99.90
9949;DHT22;5013;51.840;8.276;2023-07-13T13:32:15;26.40;99.90
9949;DHT22;5013;51.840;8.276;2023-07-13T13:34:41;26.10;99.90
9949;DHT22;5013;51.840;8.276;2023-07-13T13:37:20;26.10;99.90
9949;DHT22;5013;51.840;8.276;2023-07-13T13:39:47;25.90;99.90
9949;DHT22;5013;51.840;8.276;2023-07-13T13:42:13;25.60;99.90
9949;DHT22;5013;51.840;8.276;2023-07-13T13:44:39;25.20;99.90
9949;DHT22;5013;51.840;8.276;2023-07-13T13:47:25;25.30;99.90
9949;DHT22;5013;51.840;8.276;2023-07-13T13:49:53;25.30;99.90
9949;DHT22;5013;51.840;8.276;2023-07-13T13:52:18;25.40;99.90
9949;DHT22;5013;51.840;8.276;2023-07-13T13:54:44;25.50;99.90
9949;DHT22;5013;51.840;8.276;2023-07-13T13:57:10;25.40;99.90
9949;DHT22;5013;51.840;8.276;2023-07-13T13:59:38;25.00;99.90
9949;DHT22;5013;51.840;8.276;2023-07-13T14:02:21;24.70;99.90
9949;DHT22;5013;51.840;8.276;2023-07-13T14:04:50;24.00;99.90
9949;DHT22;5013;51.840;8.276;2023-07-13T14:07:16;23.40;1.00
9949;DHT22;5013;51.840;8.276;2023-07-13T14:09:42;22.80;1.00
9949;DHT22;5013;51.840;8.276;2023-07-13T14:12:10;22.80;1.00
9949;DHT22;5013;51.840;8.276;2023-07-13T14:14:38;22.70;1.00
9949;DHT22;5013;51.840;8.276;2023-07-13T14:17:04;22.50;1.00
9949;DHT22;5013;51.840;8.276;2023-07-13T14:19:30;22.50;1.00
9949;DHT22;5013;51.840;8.276;2023-07-13T14:21:55;22.20;1.00
9949;DHT22;5013;51.840;8.276;2023-07-13T14:24:21;22.30;1.00
9949;DHT22;5013;51.840;8.276;2023-07-13T14:26:47;22.30;1.00
9949;DHT22;5013;51.840;8.276;2023-07-13T14:29:15;22.40;1.00
9949;DHT22;5013;51.840;8.276;2023-07-13T14:31:41;22.50;1.00
9949;DHT22;5013;51.840;8.276;2023-07-13T14:34:11;22.40;1.00
9949;DHT22;5013;51.840;8.276;2023-07-13T14:36:43;22.30;1.00
9949;DHT22;5013;51.840;8.276;2023-07-13T14:39:18;21.90;1.00
9949;DHT22;5013;51.840;8.276;2023-07-13T14:41:45;21.10;1.00
9949;DHT22;5013;51.840;8.276;2023-07-13T14:44:15;20.70;64.70
9949;DHT22;5013;51.840;8.276;2023-07-13T14:46:42;20.10;1.00
9949;DHT22;5013;51.840;8.276;2023-07-13T14:49:30;19.50;99.90
9949;DHT22;5013;51.840;8.276;2023-07-13T14:52:02;19.30;1.00
9949;DHT22;5013;51.840;8.276;2023-07-13T14:54:29;18.70;99.90
9949;DHT22;5013;51.840;8.276;2023-07-13T14:56:55;18.70;97.00
9949;DHT22;5013;51.840;8.276;2023-07-13T14:59:20;18.30;1.00
9949;DHT22;5013;51.840;8.276;2023-07-13T15:01:48;18.30;99.90
9949;DHT22;5013;51.840;8.276;2023-07-13T15:04:14;18.20;1.00
9949;DHT22;5013;51.840;8.276;2023-07-13T15:06:58;18.30;1.00
9949;DHT22;5013;51.840;8.276;2023-07-13T15:09:25;18.30;1.00
9949;DHT22;5013;51.840;8.276;2023-07-13T15:11:58;18.40;99.90
9949;DHT22;5013;51.840;8.276;2023-07-13T15:14:25;18.40;1.00
9949;DHT22;5013;51.840;8.276;2023-07-13T15:16:54;18.40;96.90
9949;DHT22;5013;51.840;8.276;2023-07-13T15:19:20;18.60;99.90
9949;DHT22;5013;51.840;8.276;2023-07-13T15:21:47;18.50;1.00
9949;DHT22;5013;51.840;8.276;2023-07-13T15:24:13;18.40;1.00
9949;DHT22;5013;51.840;8.276;2023-07-13T15:26:39;18.40;99.90
9949;DHT22;5013;51.840;8.276;2023-07-13T15:29:05;18.60;99.90
9949;DHT22;5013;51.840;8.276;2023-07-13T15:31:32;18.70;3.10
9949;DHT22;5013;51.840;8.276;2023-07-13T15:33:59;18.70;1.00
9949;DHT22;5013;51.840;8.276;2023-07-13T15:36:26;18.80;99.90
9949;DHT22;5013;51.840;8.276;2023-07-13T15:38:53;19.00;99.90
9949;DHT22;5013;51.840;8.276;2023-07-13T15:41:25;19.00;99.90
9949;DHT22;5013;51.840;8.276;2023-07-13T15:43:53;19.20;1.00
9949;DHT22;5013;51.840;8.276;2023-07-13T15:46:20;19.30;1.00
9949;DHT22;5013;51.840;8.276;2023-07-13T15:48:50;19.30;35.10
9949;DHT22;5013;51.840;8.276;2023-07-13T15:51:23;19.40;1.00
9949;DHT22;5013;51.840;8.276;2023-07-13T15:53:50;19.30;1.00
9949;DHT22;5013;51.840;8.276;2023-07-13T15:56:21;19.20;1.00
9949;DHT22;5013;51.840;8.276;2023-07-13T15:58:49;19.10;1.00
9949;DHT22;5013;51.840;8.276;2023-07-13T16:01:15;19.30;16.90
9949;DHT22;5013;51.840;8.276;2023-07-13T16:03:40;19.40;99.90
9949;DHT22;5013;51.840;8.276;2023-07-13T16:06:34;19.80;99.90
9949;DHT22;5013;51.840;8.276;2023-07-13T16:09:03;20.20;1.00
9949;DHT22;5013;51.840;8.276;2023-07-13T16:11:35;20.50;1.00
9949;DHT22;5013;51.840;8.276;2023-07-13T16:14:01;20.40;21.50
9949;DHT22;5013;51.840;8.276;2023-07-13T16:16:30;20.40;2.30
9949;DHT22;5013;51.840;8.276;2023-07-13T16:18:57;20.20;1.00
9949;DHT22;5013;51.840;8.276;2023-07-13T16:21:25;20.20;99.90
9949;DHT22;5013;51.840;8.276;2023-07-13T16:23:52;20.10;1.00
9949;DHT22;5013;51.840;8.276;2023-07-13T16:26:34;20.20;1.00
9949;DHT22;5013;51.840;8.276;2023-07-13T16:29:12;20.00;1.00
9949;DHT22;5013;51.840;8.276;2023-07-13T16:31:38;20.00;99.90
9949;DHT22;5013;51.840;8.276;2023-07-13T16:34:04;20.00;99.90
9949;DHT22;5013;51.840;8.276;2023-07-13T16:36:30;20.00;1.00
9949;DHT22;5013;51.840;8.276;2023-07-13T16:38:57;20.10;74.40
9949;DHT22;5013;51.840;8.276;2023-07-13T16:41:22;20.50;10.50
9949;DHT22;5013;51.840;8.276;2023-07-13T16:43:48;20.50;1.00
9949;DHT22;5013;51.840;8.276;2023-07-13T16:46:21;20.60;41.20
9949;DHT22;5013;51.840;8.276;2023-07-13T16:48:48;20.70;99.90
9949;DHT22;5013;51.840;8.276;2023-07-13T16:51:13;20.80;37.40
9949;DHT22;5013;51.840;8.276;2023-07-13T16:53:39;21.00;99.90
9949;DHT22;5013;51.840;8.276;2023-07-13T16:56:18;21.10;1.00
9949;DHT22;5013;51.840;8.276;2023-07-13T16:58:44;21.10;48.60